sensor_id;sensor_type;location;lat;lon;timestamp;P1;durP1;ratioP1;P2;durP2;ratioP2
11048;SDS011;5577;42.706;23.160;2023-03-14T00:02:24;24.23;;;15.93;;
11048;SDS011;5577;42.706;23.160;2023-03-14T00:05:08;26.17;;;16.20;;
11048;SDS011;5577;42.706;23.160;2023-03-14T00:07:52;26.20;;;16.57;;
11048;SDS011;5577;42.706;23.160;2023-03-14T00:10:37;26.97;;;17.90;;
11048;SDS011;5577;42.706;23.160;2023-03-14T00:13:21;27.07;;;18.30;;
11048;SDS011;5577;42.706;23.160;2023-03-14T00:16:05;27.67;;;17.47;;
11048;SDS011;5577;42.706;23.160;2023-03-14T00:18:52;26.20;;;17.60;;
11048;SDS011;5577;42.706;23.160;2023-03-14T00:21:35;28.47;;;18.37;;
11048;SDS011;5577;42.706;23.160;2023-03-14T00:24:19;26.93;;;17.67;;
11048;SDS011;5577;42.706;23.160;2023-03-14T00:27:03;28.97;;;17.77;;
11048;SDS011;5577;42.706;23.160;2023-03-14T00:29:47;27.33;;;17.60;;
11048;SDS011;5577;42.706;23.160;2023-03-14T00:32:31;29.03;;;18.43;;
11048;SDS011;5577;42.706;23.160;2023-03-14T00:35:15;28.67;;;18.53;;
11048;SDS011;5577;42.706;23.160;2023-03-14T00:37:59;27.33;;;17.60;;
11048;SDS011;5577;42.706;23.160;2023-03-14T00:40:43;27.33;;;17.33;;
11048;SDS011;5577;42.706;23.160;2023-03-14T00:43:27;28.77;;;16.93;;
11048;SDS011;5577;42.706;23.160;2023-03-14T00:46:12;26.57;;;17.03;;
11048;SDS011;5577;42.706;23.160;2023-03-14T00:48:56;25.93;;;15.83;;
11048;SDS011;5577;42.706;23.160;2023-03-14T00:51:40;28.60;;;18.00;;
11048;SDS011;5577;42.706;23.160;2023-03-14T00:54:24;28.17;;;17.70;;
11048;SDS011;5577;42.706;23.160;2023-03-14T00:57:08;26.77;;;16.50;;
11048;SDS011;5577;42.706;23.160;2023-03-14T00:59:52;24.70;;;15.77;;
11048;SDS011;5577;42.706;23.160;2023-03-14T01:02:36;28.20;;;16.67;;
11048;SDS011;5577;42.706;23.160;2023-03-14T01:05:21;25.63;;;15.20;;
11048;SDS011;5577;42.706;23.160;2023-03-14T01:08:05;24.17;;;16.00;;
11048;SDS011;5577;42.706;23.160;2023-03-14T01:10:50;26.23;;;15.27;;
11048;SDS011;5577;42.706;23.160;2023-03-14T01:13:35;24.80;;;14.97;;
11048;SDS011;5577;42.706;23.160;2023-03-14T01:16:20;28.17;;;15.47;;
11048;SDS011;5577;42.706;23.160;2023-03-14T01:19:05;23.50;;;14.53;;
11048;SDS011;5577;42.706;23.160;2023-03-14T01:21:49;23.10;;;15.23;;
11048;SDS011;5577;42.706;23.160;2023-03-14T01:24:33;21.83;;;14.93;;
11048;SDS011;5577;42.706;23.160;2023-03-14T01:27:17;24.07;;;15.20;;
11048;SDS011;5577;42.706;23.160;2023-03-14T01:30:01;21.60;;;14.90;;
11048;SDS011;5577;42.706;23.160;2023-03-14T01:32:45;27.20;;;15.37;;
11048;SDS011;5577;42.706;23.160;2023-03-14T01:35:29;26.63;;;16.03;;
11048;SDS011;5577;42.706;23.160;2023-03-14T01:38:13;38.07;;;19.13;;
11048;SDS011;5577;42.706;23.160;2023-03-14T01:40:57;46.70;;;20.90;;
11048;SDS011;5577;42.706;23.160;2023-03-14T01:43:41;33.23;;;19.00;;
11048;SDS011;5577;42.706;23.160;2023-03-14T01:49:22;29.97;;;17.70;;
11048;SDS011;5577;42.706;23.160;2023-03-14T01:52:33;25.67;;;16.63;;
11048;SDS011;5577;42.706;23.160;2023-03-14T01:55:19;24.67;;;15.17;;
11048;SDS011;5577;42.706;23.160;2023-03-14T01:58:07;26.63;;;16.13;;
11048;SDS011;5577;42.706;23.160;2023-03-14T02:00:53;22.77;;;14.27;;
11048;SDS011;5577;42.706;23.160;2023-03-14T02:03:43;25.23;;;15.57;;
11048;SDS011;5577;42.706;23.160;2023-03-14T02:06:33;22.97;;;17.93;;
11048;SDS011;5577;42.706;23.160;2023-03-14T02:09:24;25.40;;;17.00;;
11048;SDS011;5577;42.706;23.160;2023-03-14T02:12:08;23.40;;;17.50;;
11048;SDS011;5577;42.706;23.160;2023-03-14T02:14:55;26.00;;;18.03;;
11048;SDS011;5577;42.706;23.160;2023-03-14T02:17:40;29.23;;;19.77;;
11048;SDS011;5577;42.706;23.160;2023-03-14T02:20:34;22.10;;;15.60;;
11048;SDS011;5577;42.706;23.160;2023-03-14T02:23:47;21.17;;;14.23;;
11048;SDS011;5577;42.706;23.160;2023-03-14T02:26:42;20.40;;;13.43;;
11048;SDS011;5577;42.706;23.160;2023-03-14T02:29:29;24.87;;;15.67;;
11048;SDS011;5577;42.706;23.160;2023-03-14T02:32:17;26.53;;;16.00;;
11048;SDS011;5577;42.706;23.160;2023-03-14T02:35:04;25.10;;;15.40;;
11048;SDS011;5577;42.706;23.160;2023-03-14T02:38:15;21.87;;;15.17;;
11048;SDS011;5577;42.706;23.160;2023-03-14T02:41:06;24.27;;;15.00;;
11048;SDS011;5577;42.706;23.160;2023-03-14T02:43:50;22.17;;;13.80;;
11048;SDS011;5577;42.706;23.160;2023-03-14T02:46:34;22.50;;;14.37;;
11048;SDS011;5577;42.706;23.160;2023-03-14T02:49:18;22.83;;;15.67;;
11048;SDS011;5577;42.706;23.160;2023-03-14T02:52:02;24.57;;;15.77;;
11048;SDS011;5577;42.706;23.160;2023-03-14T02:54:47;25.67;;;16.13;;
11048;SDS011;5577;42.706;23.160;2023-03-14T02:57:31;22.50;;;15.23;;
11048;SDS011;5577;42.706;23.160;2023-03-14T03:00:15;22.23;;;15.07;;
11048;SDS011;5577;42.706;23.160;2023-03-14T03:02:59;24.13;;;15.80;;
11048;SDS011;5577;42.706;23.160;2023-03-14T03:05:48;20.77;;;14.00;;
11048;SDS011;5577;42.706;23.160;2023-03-14T03:08:34;16.43;;;12.20;;
11048;SDS011;5577;42.706;23.160;2023-03-14T03:11:18;19.43;;;12.60;;
11048;SDS011;5577;42.706;23.160;2023-03-14T03:14:02;21.97;;;13.40;;
11048;SDS011;5577;42.706;23.160;2023-03-14T03:16:46;28.33;;;15.77;;
11048;SDS011;5577;42.706;23.160;2023-03-14T03:19:30;28.90;;;16.17;;
11048;SDS011;5577;42.706;23.160;2023-03-14T03:22:15;29.10;;;17.27;;
11048;SDS011;5577;42.706;23.160;2023-03-14T03:24:58;22.00;;;15.13;;
11048;SDS011;5577;42.706;23.160;2023-03-14T03:27:42;30.13;;;17.40;;
11048;SDS011;5577;42.706;23.160;2023-03-14T03:30:26;29.13;;;17.40;;
11048;SDS011;5577;42.706;23.160;2023-03-14T03:33:10;31.27;;;18.33;;
11048;SDS011;5577;42.706;23.160;2023-03-14T03:35:55;32.33;;;18.10;;
11048;SDS011;5577;42.706;23.160;2023-03-14T03:38:39;23.70;;;14.37;;
11048;SDS011;5577;42.706;23.160;2023-03-14T03:41:23;24.37;;;16.60;;
11048;SDS011;5577;42.706;23.160;2023-03-14T03:44:07;24.50;;;15.43;;
11048;SDS011;5577;42.706;23.160;2023-03-14T03:46:51;27.33;;;16.43;;
11048;SDS011;5577;42.706;23.160;2023-03-14T03:49:35;24.47;;;15.47;;
11048;SDS011;5577;42.706;23.160;2023-03-14T03:52:20;22.83;;;15.07;;
11048;SDS011;5577;42.706;23.160;2023-03-14T03:55:04;27.77;;;16.33;;
11048;SDS011;5577;42.706;23.160;2023-03-14T03:57:48;25.67;;;15.80;;
11048;SDS011;5577;42.706;23.160;2023-03-14T04:00:32;25.67;;;16.20;;
11048;SDS011;5577;42.706;23.160;2023-03-14T04:03:17;26.00;;;15.47;;
11048;SDS011;5577;42.706;23.160;2023-03-14T04:06:02;26.23;;;15.23;;
11048;SDS011;5577;42.706;23.160;2023-03-14T04:08:47;25.63;;;16.00;;
11048;SDS011;5577;42.706;23.160;2023-03-14T04:11:31;25.00;;;15.70;;
11048;SDS011;5577;42.706;23.160;2023-03-14T04:14:15;21.97;;;14.53;;
11048;SDS011;5577;42.706;23.160;2023-03-14T04:16:59;22.60;;;13.67;;
11048;SDS011;5577;42.706;23.160;2023-03-14T04:19:43;21.67;;;14.20;;
11048;SDS011;5577;42.706;23.160;2023-03-14T04:22:27;22.23;;;13.67;;
11048;SDS011;5577;42.706;23.160;2023-03-14T04:25:11;19.63;;;13.60;;
11048;SDS011;5577;42.706;23.160;2023-03-14T04:27:55;20.97;;;13.40;;
11048;SDS011;5577;42.706;23.160;2023-03-14T04:30:39;22.43;;;13.53;;
11048;SDS011;5577;42.706;23.160;2023-03-14T04:33:23;20.00;;;13.50;;
11048;SDS011;5577;42.706;23.160;2023-03-14T04:36:07;19.70;;;13.20;;
11048;SDS011;5577;42.706;23.160;2023-03-14T04:38:52;18.43;;;12.23;;
11048;SDS011;5577;42.706;23.160;2023-03-14T04:41:36;20.90;;;13.57;;
11048;SDS011;5577;42.706;23.160;2023-03-14T04:44:20;20.70;;;13.53;;
11048;SDS011;5577;42.706;23.160;2023-03-14T04:47:04;19.37;;;12.67;;
11048;SDS011;5577;42.706;23.160;2023-03-14T04:49:48;23.43;;;13.67;;
11048;SDS011;5577;42.706;23.160;2023-03-14T04:52:32;16.67;;;11.80;;
11048;SDS011;5577;42.706;23.160;2023-03-14T04:55:16;18.03;;;12.27;;
11048;SDS011;5577;42.706;23.160;2023-03-14T04:58:00;19.07;;;11.63;;
11048;SDS011;5577;42.706;23.160;2023-03-14T05:00:45;18.97;;;11.83;;
11048;SDS011;5577;42.706;23.160;2023-03-14T05:03:29;19.93;;;12.63;;
11048;SDS011;5577;42.706;23.160;2023-03-14T05:06:13;20.87;;;13.43;;
11048;SDS011;5577;42.706;23.160;2023-03-14T05:08:57;20.03;;;12.73;;
11048;SDS011;5577;42.706;23.160;2023-03-14T05:11:41;18.20;;;11.93;;
11048;SDS011;5577;42.706;23.160;2023-03-14T05:14:25;18.40;;;12.97;;
11048;SDS011;5577;42.706;23.160;2023-03-14T05:17:09;22.33;;;13.13;;
11048;SDS011;5577;42.706;23.160;2023-03-14T05:19:53;20.37;;;13.07;;
11048;SDS011;5577;42.706;23.160;2023-03-14T05:22:37;20.10;;;11.87;;
11048;SDS011;5577;42.706;23.160;2023-03-14T05:25:22;20.57;;;12.30;;
11048;SDS011;5577;42.706;23.160;2023-03-14T05:28:06;21.83;;;13.33;;
11048;SDS011;5577;42.706;23.160;2023-03-14T05:30:50;19.73;;;13.03;;
11048;SDS011;5577;42.706;23.160;2023-03-14T05:33:33;21.53;;;11.93;;
11048;SDS011;5577;42.706;23.160;2023-03-14T05:36:17;18.20;;;11.80;;
11048;SDS011;5577;42.706;23.160;2023-03-14T05:39:01;18.43;;;12.17;;
11048;SDS011;5577;42.706;23.160;2023-03-14T05:41:46;15.40;;;12.23;;
11048;SDS011;5577;42.706;23.160;2023-03-14T05:44:30;15.63;;;10.93;;
11048;SDS011;5577;42.706;23.160;2023-03-14T05:47:13;15.63;;;11.53;;
11048;SDS011;5577;42.706;23.160;2023-03-14T05:49:57;18.97;;;11.47;;
11048;SDS011;5577;42.706;23.160;2023-03-14T05:52:41;18.57;;;11.70;;
11048;SDS011;5577;42.706;23.160;2023-03-14T05:55:25;20.73;;;13.00;;
11048;SDS011;5577;42.706;23.160;2023-03-14T05:58:10;20.30;;;11.73;;
11048;SDS011;5577;42.706;23.160;2023-03-14T06:00:54;15.53;;;10.63;;
11048;SDS011;5577;42.706;23.160;2023-03-14T06:03:38;17.43;;;10.77;;
11048;SDS011;5577;42.706;23.160;2023-03-14T06:06:22;18.97;;;11.43;;
11048;SDS011;5577;42.706;23.160;2023-03-14T06:09:06;19.10;;;11.07;;
11048;SDS011;5577;42.706;23.160;2023-03-14T06:11:50;19.10;;;11.10;;
11048;SDS011;5577;42.706;23.160;2023-03-14T06:14:33;15.63;;;10.53;;
11048;SDS011;5577;42.706;23.160;2023-03-14T06:17:17;11.77;;;8.50;;
11048;SDS011;5577;42.706;23.160;2023-03-14T06:20:01;11.63;;;8.73;;
11048;SDS011;5577;42.706;23.160;2023-03-14T06:22:46;13.97;;;9.70;;
11048;SDS011;5577;42.706;23.160;2023-03-14T06:25:30;15.10;;;10.07;;
11048;SDS011;5577;42.706;23.160;2023-03-14T06:28:14;12.17;;;8.50;;
11048;SDS011;5577;42.706;23.160;2023-03-14T06:30:58;9.60;;;7.43;;
11048;SDS011;5577;42.706;23.160;2023-03-14T06:33:43;9.33;;;7.33;;
11048;SDS011;5577;42.706;23.160;2023-03-14T06:36:27;7.73;;;6.10;;
11048;SDS011;5577;42.706;23.160;2023-03-14T06:39:11;10.17;;;6.20;;
11048;SDS011;5577;42.706;23.160;2023-03-14T06:41:55;7.80;;;6.23;;
11048;SDS011;5577;42.706;23.160;2023-03-14T06:44:39;8.23;;;5.80;;
11048;SDS011;5577;42.706;23.160;2023-03-14T06:47:22;8.43;;;6.50;;
11048;SDS011;5577;42.706;23.160;2023-03-14T06:50:07;9.07;;;6.50;;
11048;SDS011;5577;42.706;23.160;2023-03-14T06:52:52;9.07;;;6.30;;
11048;SDS011;5577;42.706;23.160;2023-03-14T06:55:36;7.07;;;6.30;;
11048;SDS011;5577;42.706;23.160;2023-03-14T06:58:20;6.97;;;5.97;;
11048;SDS011;5577;42.706;23.160;2023-03-14T07:01:04;9.90;;;6.83;;
11048;SDS011;5577;42.706;23.160;2023-03-14T07:03:49;10.90;;;6.97;;
11048;SDS011;5577;42.706;23.160;2023-03-14T07:06:33;7.73;;;6.30;;
11048;SDS011;5577;42.706;23.160;2023-03-14T07:09:17;10.63;;;6.93;;
11048;SDS011;5577;42.706;23.160;2023-03-14T07:12:01;10.93;;;6.83;;
11048;SDS011;5577;42.706;23.160;2023-03-14T07:14:47;9.50;;;6.87;;
11048;SDS011;5577;42.706;23.160;2023-03-14T07:17:31;9.37;;;6.80;;
11048;SDS011;5577;42.706;23.160;2023-03-14T07:20:15;9.03;;;7.00;;
11048;SDS011;5577;42.706;23.160;2023-03-14T07:23:00;9.53;;;7.40;;
11048;SDS011;5577;42.706;23.160;2023-03-14T07:25:46;9.77;;;7.90;;
11048;SDS011;5577;42.706;23.160;2023-03-14T07:28:30;12.60;;;8.37;;
11048;SDS011;5577;42.706;23.160;2023-03-14T07:31:14;11.97;;;8.37;;
11048;SDS011;5577;42.706;23.160;2023-03-14T07:33:58;10.43;;;8.13;;
11048;SDS011;5577;42.706;23.160;2023-03-14T07:36:42;15.00;;;8.40;;
11048;SDS011;5577;42.706;23.160;2023-03-14T07:39:26;11.10;;;8.20;;
11048;SDS011;5577;42.706;23.160;2023-03-14T07:42:10;10.90;;;7.57;;
11048;SDS011;5577;42.706;23.160;2023-03-14T07:44:54;12.07;;;8.53;;
11048;SDS011;5577;42.706;23.160;2023-03-14T07:47:38;12.07;;;8.43;;
11048;SDS011;5577;42.706;23.160;2023-03-14T07:50:23;9.67;;;8.10;;
11048;SDS011;5577;42.706;23.160;2023-03-14T07:53:10;11.53;;;7.73;;
11048;SDS011;5577;42.706;23.160;2023-03-14T07:55:53;9.00;;;7.70;;
11048;SDS011;5577;42.706;23.160;2023-03-14T07:58:38;10.90;;;8.00;;
11048;SDS011;5577;42.706;23.160;2023-03-14T08:01:22;9.50;;;8.17;;
11048;SDS011;5577;42.706;23.160;2023-03-14T08:04:06;10.60;;;7.70;;
11048;SDS011;5577;42.706;23.160;2023-03-14T08:06:49;10.17;;;7.50;;
11048;SDS011;5577;42.706;23.160;2023-03-14T08:09:33;12.63;;;8.07;;
11048;SDS011;5577;42.706;23.160;2023-03-14T08:12:17;9.87;;;8.37;;
11048;SDS011;5577;42.706;23.160;2023-03-14T08:15:01;13.00;;;8.97;;
11048;SDS011;5577;42.706;23.160;2023-03-14T08:17:45;11.13;;;8.37;;
11048;SDS011;5577;42.706;23.160;2023-03-14T08:20:35;14.00;;;8.87;;
11048;SDS011;5577;42.706;23.160;2023-03-14T08:23:19;10.97;;;8.30;;
11048;SDS011;5577;42.706;23.160;2023-03-14T08:26:03;13.57;;;8.47;;
11048;SDS011;5577;42.706;23.160;2023-03-14T08:28:47;13.27;;;8.70;;
11048;SDS011;5577;42.706;23.160;2023-03-14T08:31:31;14.17;;;9.23;;
11048;SDS011;5577;42.706;23.160;2023-03-14T08:34:16;12.77;;;9.57;;
11048;SDS011;5577;42.706;23.160;2023-03-14T08:37:00;10.13;;;8.67;;
11048;SDS011;5577;42.706;23.160;2023-03-14T08:39:44;11.37;;;9.30;;
11048;SDS011;5577;42.706;23.160;2023-03-14T08:42:28;12.00;;;8.90;;
11048;SDS011;5577;42.706;23.160;2023-03-14T08:45:12;13.43;;;9.93;;
11048;SDS011;5577;42.706;23.160;2023-03-14T08:47:57;14.03;;;10.60;;
11048;SDS011;5577;42.706;23.160;2023-03-14T08:50:42;13.90;;;10.23;;
11048;SDS011;5577;42.706;23.160;2023-03-14T08:53:27;16.90;;;10.97;;
11048;SDS011;5577;42.706;23.160;2023-03-14T08:56:11;17.80;;;12.60;;
11048;SDS011;5577;42.706;23.160;2023-03-14T08:58:55;16.07;;;12.60;;
11048;SDS011;5577;42.706;23.160;2023-03-14T09:01:39;17.57;;;13.17;;
11048;SDS011;5577;42.706;23.160;2023-03-14T09:04:23;17.07;;;12.63;;
11048;SDS011;5577;42.706;23.160;2023-03-14T09:07:07;17.87;;;12.93;;
11048;SDS011;5577;42.706;23.160;2023-03-14T09:09:51;21.60;;;13.97;;
11048;SDS011;5577;42.706;23.160;2023-03-14T09:12:35;19.00;;;12.77;;
11048;SDS011;5577;42.706;23.160;2023-03-14T09:15:19;21.70;;;15.03;;
11048;SDS011;5577;42.706;23.160;2023-03-14T09:18:03;22.00;;;14.83;;
11048;SDS011;5577;42.706;23.160;2023-03-14T09:20:47;23.60;;;14.63;;
11048;SDS011;5577;42.706;23.160;2023-03-14T09:23:31;20.07;;;14.77;;
11048;SDS011;5577;42.706;23.160;2023-03-14T09:26:15;21.27;;;15.93;;
11048;SDS011;5577;42.706;23.160;2023-03-14T09:28:59;25.83;;;18.00;;
11048;SDS011;5577;42.706;23.160;2023-03-14T09:31:43;22.57;;;16.27;;
11048;SDS011;5577;42.706;23.160;2023-03-14T09:34:27;22.40;;;15.97;;
11048;SDS011;5577;42.706;23.160;2023-03-14T09:37:10;23.37;;;17.67;;
11048;SDS011;5577;42.706;23.160;2023-03-14T09:39:54;20.27;;;16.50;;
11048;SDS011;5577;42.706;23.160;2023-03-14T09:42:38;18.80;;;16.10;;
11048;SDS011;5577;42.706;23.160;2023-03-14T09:45:42;22.13;;;15.93;;
11048;SDS011;5577;42.706;23.160;2023-03-14T09:48:31;20.50;;;15.50;;
11048;SDS011;5577;42.706;23.160;2023-03-14T09:51:17;26.93;;;16.93;;
11048;SDS011;5577;42.706;23.160;2023-03-14T09:54:04;20.83;;;16.67;;
11048;SDS011;5577;42.706;23.160;2023-03-14T09:56:49;21.53;;;16.27;;
11048;SDS011;5577;42.706;23.160;2023-03-14T09:59:33;22.47;;;15.67;;
11048;SDS011;5577;42.706;23.160;2023-03-14T10:02:20;20.37;;;15.00;;
11048;SDS011;5577;42.706;23.160;2023-03-14T10:05:27;19.90;;;14.20;;
11048;SDS011;5577;42.706;23.160;2023-03-14T10:08:13;19.40;;;13.27;;
11048;SDS011;5577;42.706;23.160;2023-03-14T10:10:57;19.97;;;12.63;;
11048;SDS011;5577;42.706;23.160;2023-03-14T10:13:50;19.70;;;13.40;;
11048;SDS011;5577;42.706;23.160;2023-03-14T10:16:47;19.40;;;11.47;;
11048;SDS011;5577;42.706;23.160;2023-03-14T10:19:31;14.53;;;11.53;;
11048;SDS011;5577;42.706;23.160;2023-03-14T10:22:15;15.80;;;11.13;;
11048;SDS011;5577;42.706;23.160;2023-03-14T10:25:05;15.20;;;10.77;;
11048;SDS011;5577;42.706;23.160;2023-03-14T10:27:51;13.90;;;10.57;;
11048;SDS011;5577;42.706;23.160;2023-03-14T10:30:39;12.97;;;9.83;;
11048;SDS011;5577;42.706;23.160;2023-03-14T10:33:29;15.80;;;9.20;;
11048;SDS011;5577;42.706;23.160;2023-03-14T10:36:23;12.17;;;8.93;;
11048;SDS011;5577;42.706;23.160;2023-03-14T10:45:10;11.90;;;9.63;;
11048;SDS011;5577;42.706;23.160;2023-03-14T10:51:07;14.13;;;9.77;;
11048;SDS011;5577;42.706;23.160;2023-03-14T10:53:58;11.87;;;8.80;;
11048;SDS011;5577;42.706;23.160;2023-03-14T10:56:44;13.43;;;8.80;;
11048;SDS011;5577;42.706;23.160;2023-03-14T10:59:29;12.37;;;9.50;;
11048;SDS011;5577;42.706;23.160;2023-03-14T11:11:09;11.87;;;8.57;;
11048;SDS011;5577;42.706;23.160;2023-03-14T11:23:08;10.13;;;9.03;;
11048;SDS011;5577;42.706;23.160;2023-03-14T11:26:18;10.13;;;8.13;;
11048;SDS011;5577;42.706;23.160;2023-03-14T11:41:26;9.57;;;8.07;;
11048;SDS011;5577;42.706;23.160;2023-03-14T11:47:12;7.53;;;6.73;;
11048;SDS011;5577;42.706;23.160;2023-03-14T11:50:22;9.67;;;7.03;;
11048;SDS011;5577;42.706;23.160;2023-03-14T11:53:11;11.87;;;7.20;;
11048;SDS011;5577;42.706;23.160;2023-03-14T11:56:00;8.10;;;7.20;;
11048;SDS011;5577;42.706;23.160;2023-03-14T11:58:55;8.20;;;6.73;;
11048;SDS011;5577;42.706;23.160;2023-03-14T12:11:03;9.00;;;7.07;;
11048;SDS011;5577;42.706;23.160;2023-03-14T12:13:53;10.17;;;7.83;;
11048;SDS011;5577;42.706;23.160;2023-03-14T12:16:38;10.67;;;7.57;;
11048;SDS011;5577;42.706;23.160;2023-03-14T12:30:40;8.90;;;7.30;;
11048;SDS011;5577;42.706;23.160;2023-03-14T12:33:28;8.30;;;7.40;;
11048;SDS011;5577;42.706;23.160;2023-03-14T12:36:20;10.40;;;7.30;;
11048;SDS011;5577;42.706;23.160;2023-03-14T12:43:01;10.97;;;7.00;;
11048;SDS011;5577;42.706;23.160;2023-03-14T12:46:06;8.37;;;7.20;;
11048;SDS011;5577;42.706;23.160;2023-03-14T12:49:03;8.73;;;6.37;;
11048;SDS011;5577;42.706;23.160;2023-03-14T12:51:53;9.37;;;6.03;;
11048;SDS011;5577;42.706;23.160;2023-03-14T13:01:05;6.40;;;5.33;;
11048;SDS011;5577;42.706;23.160;2023-03-14T13:03:57;6.13;;;5.47;;
11048;SDS011;5577;42.706;23.160;2023-03-14T13:06:57;8.90;;;5.07;;
11048;SDS011;5577;42.706;23.160;2023-03-14T13:12:39;5.00;;;4.50;;
11048;SDS011;5577;42.706;23.160;2023-03-14T13:15:34;7.70;;;4.83;;
11048;SDS011;5577;42.706;23.160;2023-03-14T13:24:06;7.23;;;4.30;;
11048;SDS011;5577;42.706;23.160;2023-03-14T13:27:04;5.20;;;4.40;;
11048;SDS011;5577;42.706;23.160;2023-03-14T13:29:59;6.40;;;4.30;;
11048;SDS011;5577;42.706;23.160;2023-03-14T13:33:04;10.60;;;4.30;;
11048;SDS011;5577;42.706;23.160;2023-03-14T13:35:56;4.40;;;3.77;;
11048;SDS011;5577;42.706;23.160;2023-03-14T13:38:54;6.30;;;4.43;;
11048;SDS011;5577;42.706;23.160;2023-03-14T13:41:43;6.17;;;3.70;;
11048;SDS011;5577;42.706;23.160;2023-03-14T13:44:29;4.50;;;3.80;;
11048;SDS011;5577;42.706;23.160;2023-03-14T13:47:18;4.70;;;3.47;;
11048;SDS011;5577;42.706;23.160;2023-03-14T13:50:04;4.80;;;3.70;;
11048;SDS011;5577;42.706;23.160;2023-03-14T13:52:54;4.80;;;3.33;;
11048;SDS011;5577;42.706;23.160;2023-03-14T13:55:40;3.83;;;3.33;;
11048;SDS011;5577;42.706;23.160;2023-03-14T13:58:28;4.50;;;3.40;;
11048;SDS011;5577;42.706;23.160;2023-03-14T14:01:15;6.40;;;3.70;;
11048;SDS011;5577;42.706;23.160;2023-03-14T14:04:05;4.10;;;3.00;;
11048;SDS011;5577;42.706;23.160;2023-03-14T14:06:53;11.47;;;3.63;;
11048;SDS011;5577;42.706;23.160;2023-03-14T14:09:42;5.67;;;4.90;;
11048;SDS011;5577;42.706;23.160;2023-03-14T14:12:32;6.00;;;3.13;;
11048;SDS011;5577;42.706;23.160;2023-03-14T14:15:21;4.83;;;4.33;;
11048;SDS011;5577;42.706;23.160;2023-03-14T14:18:08;12.87;;;9.57;;
11048;SDS011;5577;42.706;23.160;2023-03-14T14:20:55;5.53;;;5.03;;
11048;SDS011;5577;42.706;23.160;2023-03-14T14:23:40;6.90;;;5.30;;
11048;SDS011;5577;42.706;23.160;2023-03-14T14:26:24;4.63;;;2.97;;
11048;SDS011;5577;42.706;23.160;2023-03-14T14:29:16;7.43;;;4.03;;
11048;SDS011;5577;42.706;23.160;2023-03-14T14:32:14;5.90;;;4.20;;
11048;SDS011;5577;42.706;23.160;2023-03-14T14:34:59;4.87;;;2.80;;
11048;SDS011;5577;42.706;23.160;2023-03-14T14:37:44;4.10;;;2.80;;
11048;SDS011;5577;42.706;23.160;2023-03-14T14:40:29;6.43;;;4.33;;
11048;SDS011;5577;42.706;23.160;2023-03-14T14:43:19;3.77;;;2.93;;
11048;SDS011;5577;42.706;23.160;2023-03-14T14:46:07;3.67;;;2.70;;
11048;SDS011;5577;42.706;23.160;2023-03-14T14:48:57;4.10;;;3.13;;
11048;SDS011;5577;42.706;23.160;2023-03-14T14:51:50;2.97;;;2.67;;
11048;SDS011;5577;42.706;23.160;2023-03-14T14:54:37;3.10;;;2.80;;
11048;SDS011;5577;42.706;23.160;2023-03-14T14:57:27;5.80;;;3.33;;
11048;SDS011;5577;42.706;23.160;2023-03-14T15:00:19;4.30;;;3.10;;
11048;SDS011;5577;42.706;23.160;2023-03-14T15:03:05;3.00;;;2.80;;
11048;SDS011;5577;42.706;23.160;2023-03-14T15:05:48;4.23;;;3.40;;
11048;SDS011;5577;42.706;23.160;2023-03-14T15:08:32;3.40;;;2.63;;
11048;SDS011;5577;42.706;23.160;2023-03-14T15:11:18;7.77;;;4.20;;
11048;SDS011;5577;42.706;23.160;2023-03-14T15:14:06;3.30;;;3.03;;
11048;SDS011;5577;42.706;23.160;2023-03-14T15:16:50;5.63;;;3.00;;
11048;SDS011;5577;42.706;23.160;2023-03-14T15:19:34;4.20;;;3.20;;
11048;SDS011;5577;42.706;23.160;2023-03-14T15:22:18;3.50;;;3.20;;
11048;SDS011;5577;42.706;23.160;2023-03-14T15:25:02;4.90;;;3.03;;
11048;SDS011;5577;42.706;23.160;2023-03-14T15:27:46;4.27;;;3.90;;
11048;SDS011;5577;42.706;23.160;2023-03-14T15:30:30;4.27;;;3.00;;
11048;SDS011;5577;42.706;23.160;2023-03-14T15:33:14;3.80;;;3.50;;
11048;SDS011;5577;42.706;23.160;2023-03-14T15:35:59;3.90;;;3.40;;
11048;SDS011;5577;42.706;23.160;2023-03-14T15:38:44;3.53;;;3.20;;
11048;SDS011;5577;42.706;23.160;2023-03-14T15:41:28;6.70;;;4.80;;
11048;SDS011;5577;42.706;23.160;2023-03-14T15:44:12;10.23;;;7.57;;
11048;SDS011;5577;42.706;23.160;2023-03-14T15:46:56;7.57;;;6.30;;
11048;SDS011;5577;42.706;23.160;2023-03-14T15:49:40;5.13;;;3.63;;
11048;SDS011;5577;42.706;23.160;2023-03-14T15:52:24;9.03;;;6.33;;
11048;SDS011;5577;42.706;23.160;2023-03-14T15:55:08;10.10;;;8.50;;
11048;SDS011;5577;42.706;23.160;2023-03-14T15:57:52;7.07;;;4.73;;
11048;SDS011;5577;42.706;23.160;2023-03-14T16:00:37;8.70;;;5.67;;
11048;SDS011;5577;42.706;23.160;2023-03-14T16:03:21;6.37;;;3.53;;
11048;SDS011;5577;42.706;23.160;2023-03-14T16:06:05;5.77;;;3.10;;
11048;SDS011;5577;42.706;23.160;2023-03-14T16:08:49;5.67;;;5.00;;
11048;SDS011;5577;42.706;23.160;2023-03-14T16:11:34;4.43;;;3.07;;
11048;SDS011;5577;42.706;23.160;2023-03-14T16:14:17;8.30;;;7.50;;
11048;SDS011;5577;42.706;23.160;2023-03-14T16:17:01;11.13;;;7.70;;
11048;SDS011;5577;42.706;23.160;2023-03-14T16:19:45;5.27;;;3.87;;
11048;SDS011;5577;42.706;23.160;2023-03-14T16:22:30;4.43;;;4.03;;
11048;SDS011;5577;42.706;23.160;2023-03-14T16:25:19;4.30;;;3.63;;
11048;SDS011;5577;42.706;23.160;2023-03-14T16:28:03;5.23;;;3.50;;
11048;SDS011;5577;42.706;23.160;2023-03-14T16:30:47;8.63;;;5.07;;
11048;SDS011;5577;42.706;23.160;2023-03-14T16:33:32;7.10;;;5.40;;
11048;SDS011;5577;42.706;23.160;2023-03-14T16:36:17;8.83;;;7.30;;
11048;SDS011;5577;42.706;23.160;2023-03-14T16:39:01;9.30;;;6.13;;
11048;SDS011;5577;42.706;23.160;2023-03-14T16:41:45;10.23;;;6.17;;
11048;SDS011;5577;42.706;23.160;2023-03-14T16:44:29;10.73;;;7.07;;
11048;SDS011;5577;42.706;23.160;2023-03-14T16:47:14;13.20;;;7.10;;
11048;SDS011;5577;42.706;23.160;2023-03-14T16:49:58;12.40;;;8.17;;
11048;SDS011;5577;42.706;23.160;2023-03-14T16:52:42;9.63;;;7.97;;
11048;SDS011;5577;42.706;23.160;2023-03-14T16:55:27;15.37;;;8.03;;
11048;SDS011;5577;42.706;23.160;2023-03-14T16:58:12;9.33;;;7.60;;
11048;SDS011;5577;42.706;23.160;2023-03-14T17:00:56;10.00;;;7.33;;
11048;SDS011;5577;42.706;23.160;2023-03-14T17:03:42;8.70;;;6.80;;
11048;SDS011;5577;42.706;23.160;2023-03-14T17:06:30;11.93;;;7.77;;
11048;SDS011;5577;42.706;23.160;2023-03-14T17:09:14;17.57;;;12.87;;
11048;SDS011;5577;42.706;23.160;2023-03-14T17:11:58;14.33;;;8.30;;
11048;SDS011;5577;42.706;23.160;2023-03-14T17:14:42;17.07;;;10.67;;
11048;SDS011;5577;42.706;23.160;2023-03-14T17:17:26;14.33;;;8.30;;
11048;SDS011;5577;42.706;23.160;2023-03-14T17:20:10;11.17;;;7.17;;
11048;SDS011;5577;42.706;23.160;2023-03-14T17:22:55;12.50;;;7.97;;
11048;SDS011;5577;42.706;23.160;2023-03-14T17:25:39;16.83;;;12.87;;
11048;SDS011;5577;42.706;23.160;2023-03-14T17:28:24;16.57;;;12.27;;
11048;SDS011;5577;42.706;23.160;2023-03-14T17:31:11;14.30;;;10.00;;
11048;SDS011;5577;42.706;23.160;2023-03-14T17:33:57;17.00;;;11.30;;
11048;SDS011;5577;42.706;23.160;2023-03-14T17:36:41;13.50;;;10.13;;
11048;SDS011;5577;42.706;23.160;2023-03-14T17:39:25;14.17;;;10.43;;
11048;SDS011;5577;42.706;23.160;2023-03-14T17:42:09;14.13;;;10.07;;
11048;SDS011;5577;42.706;23.160;2023-03-14T17:44:53;14.23;;;9.93;;
11048;SDS011;5577;42.706;23.160;2023-03-14T17:47:37;19.97;;;12.80;;